עמוד ראשי
METAR-TAF:

METAR-TAF

שדות תעופה :

Almería, ספרד

קו רוחב: 36-51N, קו אורך: 002-23W, גובה: 15מטר

תצפית מזג אוויר נוכחית

הדו"ח נערך לפני 32דקות, בשעה 02:00 UTC
רוח 3קשר מכיוון צפון-מזרח, משתנה בין צפון ו דרום-מזרח
טמפרטורת 26 צלסיוס
לחות 74%
לחץ 1014 hPa
ראות 10 קילומטר או יותר
ללא עננים שבסיסם נמוך מ 5000 רגל או קומולונימבוס

METAR: LEAM 220200Z AUTO 05003KT 360V140 CAVOK 26/21 Q1014

זמן: 04:32 (02:32 UTC)

תחזית

הדו"ח נערך לפני 3 שעות ו 32דקות, בשעה 23:00 UTC
תחזית בתוקף מ 22 ב 00 UTC עד 22 ב 24 UTC
רוח 4קשר מכיוון מזרח/צפון-מזרח
ראות 10 קילומטר או יותר
ללא עננים שבסיסם נמוך מ 5000 רגל או קומולונימבוס
יעשה מ
22 ב 06 UTC עד 22 ב 08 UTC
רוח 14קשר מכיוון מזרח/צפון-מזרח
יעשה מ
22 ב 21 UTC עד 22 ב 23 UTC
רוח 3קשר עם כיוונים משתנים

TAF: LEAM 212300Z 2200/2224 06004KT CAVOK TX31/2214Z TN22/2205Z BECMG 2206/2208 06014KT BECMG 2221/2223 VRB03KT

תצפיות ותחזיות מזג אוויר לגבי יותר מ- 4,000 שדות תעופה ברחבי העולם. דוחות METAR ו- TAF.

התחנות הזמינות מסומנות בנקודות צהובות ואדומות על גבי המפה.

העבר את העכבר לנקודה הצבעונית על מנת לראות את שם התחנה.

לאחר מכן, לחץ כדי לראות את תוכן ואת תחזיות מזג האוויר.

כדי לשנות את המפה: לחץ על הכפתורים הירוקים עם הפלוס השחור כדי להתקרב; על הכפתור הירוק עם המקף כדי להתרחק; או בחיצים הירוקים למפות סמוכות.


METAR-TAF: